Time;durP1;ratioP1;P1;durP2;ratioP2;P2;SDS_P1;SDS_P2;PMS_P1;PMS_P2;Temp;Humidity;BMP_temperature;BMP_pressure;BME280_temperature;BME280_humidity;BME280_pressure;Samples;Min_cycle;Max_cycle;Signal;HPM_P1;HPM_P2
2022/11/23 09:52:50;;;;;;;7.03;2.73;;;;;;;6.65;100.00;97666.97;5109849;28;20575;-83
2022/11/23 09:55:25;;;;;;;6.60;2.97;;;;;;;7.21;100.00;97665.78;5125329;27;39029;-83
2022/11/23 09:57:59;;;;;;;4.67;2.70;;;;;;;7.73;100.00;97654.28;5108450;28;40863;-82
2022/11/23 10:00:29;;;;;;;4.47;2.77;;;;;;;8.25;99.95;97667.25;5087395;28;41761;-82
2022/11/23 10:02:57;;;;;;;4.47;2.50;;;;;;;8.62;95.77;97669.88;5085044;28;43166;-82
2022/11/23 10:05:27;;;;;;;3.60;2.47;;;;;;;8.77;91.66;97668.75;5099260;28;40926;-82
2022/11/23 10:08:07;;;;;;;4.80;2.67;;;;;;;9.02;89.18;97658.03;5092001;28;41712;-83
2022/11/23 10:10:41;;;;;;;3.87;2.47;;;;;;;9.36;87.66;97671.34;5105393;28;42493;-81
2022/11/23 10:13:30;;;;;;;3.57;2.17;;;;;;;9.59;86.14;97673.06;5091948;28;42199;-81
2022/11/23 10:16:19;;;;;;;3.80;2.07;;;;;;;9.77;84.66;97680.53;5105413;28;39936;-81
2022/11/23 10:18:59;;;;;;;5.03;2.07;;;;;;;9.85;84.15;97662.25;5091734;28;41791;-81
2022/11/23 10:21:34;;;;;;;3.40;2.17;;;;;;;10.05;82.16;97674.72;5106215;28;43158;-86
2022/11/23 10:24:14;;;;;;;3.80;2.20;;;;;;;10.04;80.50;97662.47;5091365;28;42729;-83
2022/11/23 10:26:46;;;;;;;4.23;2.07;;;;;;;10.22;80.58;97676.91;5091441;28;38538;-85
2022/11/23 10:29:20;;;;;;;4.10;2.50;;;;;;;10.36;80.55;97667.88;5124885;27;41762;-84
2022/11/23 10:31:49;;;;;;;3.57;1.90;;;;;;;10.36;79.10;97652.84;5107764;28;42663;-86
2022/11/23 10:34:23;;;;;;;5.90;1.70;;;;;;;10.46;78.82;97657.38;5090803;28;42177;-84
2022/11/23 10:36:51;;;;;;;3.70;2.00;;;;;;;10.53;77.50;97655.91;5091443;28;38864;-86
2022/11/23 10:39:23;;;;;;;3.83;2.20;;;;;;;10.70;77.11;97658.88;5090939;28;40696;-86
2022/11/23 10:41:52;;;;;;;3.77;2.10;;;;;;;10.73;76.03;97658.63;5090992;28;41982;-84
2022/11/23 10:44:29;;;;;;;3.87;1.90;;;;;;;10.80;75.18;97654.50;5090802;28;42678;-86
2022/11/23 10:46:57;;;;;;;4.40;2.30;;;;;;;10.96;74.41;97662.03;5091110;28;39955;-85
2022/11/23 10:49:28;;;;;;;4.10;2.00;;;;;;;11.21;73.84;97670.56;5090198;28;42027;-86
2022/11/23 10:51:57;;;;;;;5.07;2.03;;;;;;;11.21;73.48;97636.13;5090393;28;43227;-86
2022/11/23 10:54:30;;;;;;;3.07;2.00;;;;;;;11.26;72.01;97625.94;5090542;28;42391;-85
2022/11/23 10:57:00;;;;;;;3.83;2.30;;;;;;;11.49;71.13;97643.41;5107656;28;38808;-85
2022/11/23 10:59:34;;;;;;;5.50;2.60;;;;;;;11.88;70.60;97665.66;5090293;28;42084;-84
2022/11/23 11:02:16;;;;;;;6.30;2.40;;;;;;;12.00;68.59;97647.84;5089059;28;41984;-85
2022/11/23 11:04:45;;;;;;;3.27;1.90;;;;;;;12.49;67.54;97677.03;5073031;28;43936;-85
2022/11/23 11:07:23;;;;;;;7.27;2.33;;;;;;;12.99;65.91;97679.63;5056550;28;40651;-87
2022/11/23 11:10:21;;;;;;;4.07;1.80;;;;;;;13.60;64.79;97652.72;5062396;28;40781;-86
2022/11/23 11:12:51;;;;;;;3.13;1.63;;;;;;;15.28;60.86;97690.50;5076159;28;42010;-86
2022/11/23 11:15:19;;;;;;;4.37;1.87;;;;;;;16.91;57.63;97698.47;5076898;28;41309;-86
2022/11/23 11:17:55;;;;;;;2.40;1.70;;;;;;;18.65;51.97;97701.50;5076778;28;39177;-84
2022/11/23 11:20:33;;;;;;;4.23;1.60;;;;;;;19.92;49.93;97727.81;5072772;28;41506;-85
2022/11/23 11:23:17;;;;;;;2.53;1.60;;;;;;;20.77;46.43;97733.66;5057392;28;42775;-84
2022/11/23 11:25:47;;;;;;;3.43;1.77;;;;;;;21.32;45.08;97735.78;5086555;28;42150;-85
2022/11/23 11:28:26;;;;;;;2.07;1.60;;;;;;;20.73;44.72;97726.97;5078493;28;38830;-85
2022/11/23 11:31:04;;;;;;;3.53;1.87;;;;;;;21.32;42.22;97726.88;5072648;28;40975;-84
2022/11/23 11:33:40;;;;;;;3.97;1.87;;;;;;;22.50;40.37;97730.56;5056667;28;41697;-81
2022/11/23 11:36:12;;;;;;;3.33;1.80;;;;;;;23.36;39.35;97736.38;5072925;28;41189;-84
2022/11/23 11:38:46;;;;;;;2.70;1.73;;;;;;;23.91;39.29;97719.00;5078014;28;39049;-82
2022/11/23 11:41:18;;;;;;;3.33;2.10;;;;;;;25.71;35.55;97745.38;5073055;28;40671;-83
2022/11/23 11:43:50;;;;;;;2.47;1.87;;;;;;;27.69;33.11;97754.22;5056487;28;41768;-85
2022/11/23 11:46:22;;;;;;;4.57;2.00;;;;;;;28.43;32.23;97755.56;5107564;28;40887;-84
2022/11/23 11:48:55;;;;;;;4.83;1.90;;;;;;;28.25;32.76;97751.03;5076794;28;40640;-84
2022/11/23 11:51:28;;;;;;;2.40;2.10;;;;;;;28.11;32.41;97763.19;5109618;28;41009;-83
2022/11/23 11:54:01;;;;;;;3.20;1.80;;;;;;;26.78;31.93;97757.81;5076595;28;41943;-83
2022/11/23 11:56:34;;;;;;;3.77;1.93;;;;;;;26.35;34.27;97738.81;5072461;28;42199;-84
2022/11/23 11:59:16;;;;;;;3.07;1.70;;;;;;;27.03;33.07;97738.75;5072960;28;38988;-82
2022/11/23 12:01:54;;;;;;;4.13;2.07;;;;;;;28.60;30.14;97748.31;5056255;28;40733;-84
2022/11/23 12:04:27;;;;;;;5.00;2.27;;;;;;;30.36;29.14;97754.81;5057032;28;44180;-83
2022/11/23 12:07:05;;;;;;;2.50;1.80;;;;;;;31.62;26.33;97763.94;5076290;28;42816;-85
2022/11/23 12:09:37;;;;;;;3.22;1.70;;;;;;;32.47;25.91;97748.59;5123853;27;40782;-85
2022/11/23 12:12:12;;;;;;;3.97;1.80;;;;;;;32.90;25.09;97744.78;5075556;28;42065;-82
2022/11/23 12:14:41;;;;;;;2.97;2.10;;;;;;;33.37;25.32;97749.44;5088585;28;42412;-84
2022/11/23 12:17:28;;;;;;;4.50;2.22;;;;;;;33.78;23.36;97753.94;5075698;28;42380;-83
2022/11/23 12:20:03;;;;;;;5.13;2.15;;;;;;;33.95;22.98;97745.47;5074507;28;39034;-86
2022/11/23 12:22:39;;;;;;;3.97;1.55;;;;;;;33.92;22.78;97747.91;5072573;28;41354;-85
2022/11/23 12:25:17;;;;;;;3.42;1.70;;;;;;;34.03;22.95;97733.09;5107625;28;43893;-84
2022/11/23 12:28:00;;;;;;;2.28;1.55;;;;;;;34.25;22.58;97741.88;5089033;28;41914;-84
2022/11/23 12:30:37;;;;;;;2.63;1.50;;;;;;;34.48;22.08;97749.63;5072917;28;38801;-84
2022/11/23 12:33:25;;;;;;;3.40;1.75;;;;;;;34.35;22.61;97735.59;5088286;28;42317;-82
2022/11/23 12:36:09;;;;;;;2.37;1.50;;;;;;;32.64;23.55;97716.34;5088885;28;43697;-84
2022/11/23 12:38:48;;;;;;;4.00;1.47;;;;;;;31.42;24.58;97700.75;5073432;28;41155;-84
2022/11/23 12:41:26;;;;;;;3.53;1.87;;;;;;;30.53;25.53;97705.63;5071234;28;40195;-83
2022/11/23 12:44:25;;;;;;;3.20;1.47;;;;;;;30.80;23.54;97706.56;5070440;28;40897;-83
2022/11/23 12:47:01;;;;;;;3.77;1.50;;;;;;;30.88;23.87;97692.47;5072013;28;41467;-83
2022/11/23 12:49:36;;;;;;;3.20;1.83;;;;;;;30.50;23.59;97676.88;5087887;28;41847;-83
2022/11/23 12:52:27;;;;;;;4.20;1.60;;;;;;;30.10;24.61;97679.00;5089797;28;39147;-84
2022/11/23 12:55:03;;;;;;;3.37;1.50;;;;;;;29.10;25.08;97675.00;5071842;28;40748;-83
2022/11/23 12:57:38;;;;;;;1.60;1.33;;;;;;;27.30;26.89;97669.41;5091279;28;42084;-82
2022/11/23 13:00:13;;;;;;;3.73;1.10;;;;;;;25.51;28.64;97660.59;5073073;28;41050;-83
2022/11/23 13:03:17;;;;;;;4.23;1.50;;;;;;;24.00;29.79;97646.59;5074661;28;39076;-82
2022/11/23 13:06:20;;;;;;;4.03;1.50;;;;;;;22.38;31.08;97632.34;5043434;28;40923;-82
2022/11/23 13:09:20;;;;;;;3.47;1.40;;;;;;;21.07;32.37;97635.66;5060148;28;42796;-82
2022/11/23 13:12:07;;;;;;;3.77;1.57;;;;;;;19.98;33.83;97614.25;5070639;28;41267;-83
2022/11/23 13:14:42;;;;;;;2.70;1.33;;;;;;;19.12;34.98;97609.34;5086282;28;39776;-82
2022/11/23 13:17:24;;;;;;;5.60;1.53;;;;;;;18.10;36.07;97546.94;5074332;28;42328;-83
2022/11/23 13:20:16;;;;;;;3.00;1.40;;;;;;;17.65;37.58;97553.00;5070453;28;41673;-82
2022/11/23 13:22:44;;;;;;;3.20;1.40;;;;;;;17.20;38.43;97570.41;5054689;28;41848;-84
2022/11/23 13:25:23;;;;;;;5.03;1.53;;;;;;;16.70;39.51;97561.72;5062605;28;38579;-83
2022/11/23 13:28:00;;;;;;;4.73;1.50;;;;;;;16.42;40.23;97582.56;5074615;28;40854;-82
2022/11/23 13:30:34;;;;;;;2.40;1.07;;;;;;;16.16;40.94;97575.47;5070829;28;42034;-83
2022/11/23 13:33:24;;;;;;;2.80;1.20;;;;;;;15.79;40.91;97565.13;5071625;28;40781;-82
2022/11/23 13:35:57;;;;;;;4.63;1.10;;;;;;;15.36;41.68;97549.19;5068339;28;39128;-84
2022/11/23 13:38:36;;;;;;;4.03;1.50;;;;;;;15.15;42.47;97552.22;5108530;28;42402;-83
2022/11/23 13:41:44;;;;;;;4.20;1.90;;;;;;;14.77;43.24;97553.44;5108318;28;42287;-82
2022/11/23 13:44:21;;;;;;;4.53;1.43;;;;;;;14.42;43.78;97529.47;5059003;28;42156;-83
2022/11/23 13:47:05;;;;;;;5.27;1.60;;;;;;;14.37;44.51;97548.53;5088602;28;40601;-84
2022/11/23 13:49:42;;;;;;;4.07;1.17;;;;;;;14.17;44.66;97529.19;5091019;28;42144;-84
2022/11/23 13:52:29;;;;;;;4.03;1.20;;;;;;;13.99;45.17;97538.97;5073912;28;43167;-83
2022/11/23 13:55:01;;;;;;;4.57;1.60;;;;;;;13.72;45.36;97515.91;5088596;28;42265;-82
2022/11/23 13:57:31;;;;;;;4.67;1.60;;;;;;;13.68;45.65;97533.13;5089379;28;39890;-82
2022/11/23 14:00:35;;;;;;;2.53;1.40;;;;;;;13.53;45.70;97529.28;5090094;28;40587;-82
2022/11/23 14:03:39;;;;;;;2.17;1.20;;;;;;;13.37;45.88;97521.06;5074521;28;42011;-83
2022/11/23 14:06:11;;;;;;;3.13;1.03;;;;;;;13.27;46.04;97523.78;5070044;28;41259;-83
2022/11/23 14:08:41;;;;;;;4.50;1.70;;;;;;;13.10;46.35;97497.94;5070863;28;38795;-84
2022/11/23 14:11:14;;;;;;;3.83;1.30;;;;;;;13.03;46.36;97510.94;5090689;28;41488;-83
2022/11/23 14:13:52;;;;;;;3.03;1.40;;;;;;;12.78;46.72;97507.09;5089610;28;42857;-86
2022/11/23 14:16:54;;;;;;;4.17;1.13;;;;;;;12.75;47.03;97512.66;5087598;28;43084;-84
2022/11/23 14:19:35;;;;;;;3.83;1.40;;;;;;;12.32;47.39;97452.09;5077720;28;39607;-90
2022/11/23 14:22:22;;;;;;;2.90;1.80;;;;;;;12.68;47.70;97521.38;5074207;28;42105;-90
2022/11/23 14:25:18;;;;;;;6.67;1.80;;;;;;;12.54;48.14;97520.81;5102223;28;44513;-85
2022/11/23 14:28:20;;;;;;;6.27;1.80;;;;;;;12.41;48.42;97504.31;5059185;28;41002;-89
2022/11/23 14:31:33;;;;;;;6.97;2.27;;;;;;;12.28;49.16;97497.63;5063685;28;40625;-86
2022/11/23 14:34:14;;;;;;;7.53;2.40;;;;;;;12.13;49.25;97499.84;5061443;28;40403;-88
2022/11/23 14:37:13;;;;;;;3.93;1.83;;;;;;;11.74;49.82;97452.03;5057576;28;41887;-89
2022/11/23 14:40:10;;;;;;;8.17;2.63;;;;;;;11.84;50.24;97495.34;5070078;28;41285;-90
2022/11/23 14:42:43;;;;;;;6.50;2.03;;;;;;;11.77;50.72;97494.22;5097184;27;40099;-83
2022/11/23 14:45:14;;;;;;;8.67;2.70;;;;;;;11.52;50.77;97473.47;5073368;28;41984;-83
2022/11/23 14:47:43;;;;;;;5.60;2.50;;;;;;;11.57;51.11;97492.47;5094199;28;42898;-84
2022/11/23 14:50:26;;;;;;;4.63;2.27;;;;;;;11.47;51.42;97487.13;5090391;28;42905;-84
2022/11/23 14:52:56;;;;;;;2.83;1.80;;;;;;;11.26;51.82;97462.50;5067065;28;40232;-83
2022/11/23 14:55:26;;;;;;;5.37;1.90;;;;;;;11.27;52.41;97479.22;5065835;28;40227;-84
2022/11/23 14:57:57;;;;;;;5.37;1.80;;;;;;;11.05;52.42;97446.66;5092260;28;42115;-85
2022/11/23 15:00:29;;;;;;;6.60;1.63;;;;;;;10.89;53.11;97438.38;5073318;28;41169;-83
2022/11/23 15:03:14;;;;;;;3.97;1.70;;;;;;;10.80;52.94;97449.75;5076159;28;39278;-87
2022/11/23 15:05:45;;;;;;;7.30;2.17;;;;;;;10.70;53.26;97446.22;5070748;28;40631;-88
2022/11/23 15:08:17;;;;;;;5.57;1.93;;;;;;;10.55;53.90;97450.16;5091603;28;41418;-86
2022/11/23 15:10:49;;;;;;;5.53;1.87;;;;;;;10.32;54.26;97429.13;5080124;28;43193;-85
2022/11/23 15:13:34;;;;;;;3.67;2.00;;;;;;;10.43;54.35;97460.81;5058007;28;39209;-87
2022/11/23 15:16:37;;;;;;;6.13;2.27;;;;;;;10.31;54.63;97461.00;5069211;28;40760;-88
2022/11/23 15:19:30;;;;;;;5.70;2.43;;;;;;;9.64;55.31;97379.31;5062158;28;42927;-89
2022/11/23 15:22:00;;;;;;;4.43;1.83;;;;;;;9.81;56.09;97417.56;5070740;28;42573;-84
2022/11/23 15:24:28;;;;;;;3.93;1.70;;;;;;;9.80;55.96;97437.03;5076703;28;39601;-84
2022/11/23 15:27:04;;;;;;;4.90;2.27;;;;;;;9.75;56.91;97432.13;5075512;28;40833;-85
2022/11/23 15:29:34;;;;;;;5.47;2.33;;;;;;;9.59;57.82;97429.91;5089625;28;43675;-85
2022/11/23 15:32:02;;;;;;;4.83;2.57;;;;;;;9.59;57.40;97451.03;5073453;28;41114;-84
2022/11/23 15:34:32;;;;;;;3.97;2.13;;;;;;;9.47;57.77;97441.47;5062286;28;40072;-80
2022/11/23 15:37:00;;;;;;;5.63;3.07;;;;;;;9.37;58.26;97443.16;5093135;28;40837;-80
2022/11/23 15:39:38;;;;;;;9.27;3.90;;;;;;;9.29;59.59;97445.56;5116241;27;43763;-80
2022/11/23 15:42:06;;;;;;;8.40;3.40;;;;;;;9.18;59.89;97440.31;5076600;28;43522;-81
2022/11/23 15:44:38;;;;;;;11.37;4.27;;;;;;;9.07;60.02;97437.66;5107772;27;39896;-79
2022/11/23 15:47:07;;;;;;;8.10;4.20;;;;;;;8.93;60.36;97436.97;5056225;28;40700;-79
2022/11/23 15:49:39;;;;;;;9.20;4.03;;;;;;;8.99;60.23;97444.41;5055249;28;43365;-80
2022/11/23 15:52:06;;;;;;;12.63;5.30;;;;;;;8.93;60.41;97459.88;5089332;28;43187;-79
2022/11/23 15:54:37;;;;;;;11.27;5.40;;;;;;;8.87;60.76;97450.66;5092486;28;40122;-79
2022/11/23 15:57:09;;;;;;;10.10;4.27;;;;;;;8.82;60.43;97454.59;5092016;28;40384;-80
2022/11/23 15:59:42;;;;;;;8.37;3.60;;;;;;;8.74;60.38;97446.44;5085499;28;41502;-82
2022/11/23 16:02:16;;;;;;;5.90;3.17;;;;;;;8.59;60.13;97446.66;5067483;28;40257;-80
2022/11/23 16:04:45;;;;;;;7.03;3.10;;;;;;;8.56;60.15;97462.72;5090149;28;40750;-79
2022/11/23 16:07:16;;;;;;;8.03;3.10;;;;;;;8.33;59.75;97444.31;5093167;28;42622;-80
2022/11/23 16:09:47;;;;;;;6.40;3.07;;;;;;;8.37;60.47;97470.38;5075368;28;43168;-79
2022/11/23 16:12:47;;;;;;;6.23;3.30;;;;;;;8.28;61.33;97466.56;5075648;28;41035;-79
2022/11/23 16:15:40;;;;;;;5.17;2.87;;;;;;;8.17;61.96;97458.63;5073025;28;38840;-79
2022/11/23 16:18:20;;;;;;;5.50;2.73;;;;;;;8.03;62.22;97456.22;5075404;28;40599;-79
2022/11/23 16:20:53;;;;;;;6.30;2.77;;;;;;;7.91;63.69;97450.03;5088270;28;42328;-79
2022/11/23 16:23:23;;;;;;;3.70;2.13;;;;;;;7.79;63.25;97448.31;5092182;28;41111;-80
2022/11/23 16:25:58;;;;;;;8.03;3.20;;;;;;;7.77;64.71;97454.66;5091641;28;39787;-80
2022/11/23 16:28:29;;;;;;;4.93;2.40;;;;;;;7.82;64.86;97465.69;5074842;28;41642;-79
2022/11/23 16:30:57;;;;;;;5.03;2.07;;;;;;;7.73;64.49;97464.56;5088980;28;43471;-79
2022/11/23 16:33:24;;;;;;;5.13;1.80;;;;;;;7.71;64.67;97460.38;5090545;28;41827;-80
2022/11/23 16:35:59;;;;;;;5.97;2.70;;;;;;;7.70;64.34;97469.22;5093221;28;39907;-80
2022/11/23 16:38:26;;;;;;;4.30;2.00;;;;;;;7.32;64.33;97412.25;5093542;28;42082;-79
2022/11/23 16:40:55;;;;;;;4.80;2.30;;;;;;;7.74;64.51;97486.50;5097755;28;42932;-79
2022/11/23 16:43:22;;;;;;;4.47;1.90;;;;;;;7.69;64.83;97496.50;5097464;28;43168;-79
2022/11/23 16:45:51;;;;;;;4.60;2.07;;;;;;;7.68;65.43;97494.84;5096264;28;40638;-79
2022/11/23 16:48:40;;;;;;;6.30;2.97;;;;;;;7.61;64.96;97512.91;5093307;28;41912;-79
2022/11/23 16:51:13;;;;;;;5.27;2.53;;;;;;;7.53;64.24;97516.09;5091315;28;42508;-80
2022/11/23 16:53:45;;;;;;;3.57;2.07;;;;;;;7.48;65.00;97517.34;5089181;28;42872;-80
2022/11/23 16:56:19;;;;;;;4.20;2.30;;;;;;;7.38;64.93;97517.19;5075003;28;40119;-79
2022/11/23 16:58:47;;;;;;;4.73;2.70;;;;;;;7.36;65.45;97519.06;5075153;28;41667;-79
2022/11/23 17:01:19;;;;;;;4.40;2.80;;;;;;;7.34;65.12;97517.50;5074291;28;41803;-79
2022/11/23 17:03:47;;;;;;;5.43;2.83;;;;;;;7.22;65.29;97511.28;5090034;28;43191;-79
2022/11/23 17:06:21;;;;;;;7.27;2.70;;;;;;;7.21;65.24;97525.41;5093108;28;39753;-79
2022/11/23 17:08:50;;;;;;;3.83;2.53;;;;;;;7.17;65.34;97534.50;5075300;28;41660;-80
2022/11/23 17:11:21;;;;;;;4.57;2.50;;;;;;;7.02;65.10;97525.88;5074668;28;42141;-79
2022/11/23 17:13:52;;;;;;;4.67;2.40;;;;;;;6.93;66.56;97515.94;5075005;28;41960;-80
2022/11/23 17:16:22;;;;;;;5.37;2.27;;;;;;;6.96;65.89;97541.22;5070195;28;40780;-83
2022/11/23 17:18:50;;;;;;;7.83;3.27;;;;;;;6.77;66.26;97529.34;5074624;28;40925;-82
2022/11/23 17:21:18;;;;;;;3.63;2.60;;;;;;;6.70;65.86;97535.09;5070395;28;43019;-83
2022/11/23 17:23:46;;;;;;;2.80;2.00;;;;;;;6.64;66.18;97536.38;5071669;28;42665;-84
2022/11/23 17:26:31;;;;;;;4.97;2.47;;;;;;;6.70;66.61;97548.25;5074811;28;38722;-81
2022/11/23 17:29:01;;;;;;;5.10;2.57;;;;;;;6.57;66.48;97537.72;5075170;28;40591;-83
2022/11/23 17:31:28;;;;;;;3.27;1.87;;;;;;;6.47;66.65;97523.50;5090722;28;42068;-83
2022/11/23 17:33:56;;;;;;;3.40;1.90;;;;;;;6.60;66.50;97540.16;5074613;28;41347;-85
2022/11/23 17:36:26;;;;;;;4.70;3.20;;;;;;;6.71;66.60;97557.84;5074249;28;39356;-85
2022/11/23 17:38:54;;;;;;;6.40;3.10;;;;;;;6.66;66.72;97546.81;5125692;27;42020;-83
2022/11/23 17:41:21;;;;;;;5.17;3.17;;;;;;;6.43;66.57;97501.00;5070528;28;43120;-85
2022/11/23 17:43:49;;;;;;;5.90;3.40;;;;;;;6.83;66.36;97563.09;5074598;28;41535;-85
2022/11/23 17:46:20;;;;;;;6.07;3.17;;;;;;;6.87;67.15;97552.38;5074732;28;39069;-84
2022/11/23 17:48:51;;;;;;;8.40;3.53;;;;;;;6.72;67.35;97527.97;5074742;28;41046;-84
2022/11/23 17:51:19;;;;;;;6.30;3.60;;;;;;;6.95;67.99;97557.94;5074048;28;41956;-84
2022/11/23 17:53:49;;;;;;;5.73;3.27;;;;;;;6.87;67.50;97541.84;5074622;28;41466;-82
2022/11/23 17:56:18;;;;;;;6.03;3.73;;;;;;;6.93;67.46;97557.22;5074171;28;39295;-82
2022/11/23 17:58:47;;;;;;;7.47;3.47;;;;;;;7.05;67.87;97582.69;5074590;28;40719;-82
2022/11/23 18:01:16;;;;;;;5.63;3.77;;;;;;;7.08;67.61;97590.38;5092202;28;42799;-82
2022/11/23 18:03:44;;;;;;;8.87;6.17;;;;;;;6.95;68.11;97571.13;5074243;28;41433;-82
